createdAt,value
2023-05-03T00:00:48.208Z,0.00
2023-05-03T00:01:48.204Z,0.00
2023-05-03T00:02:47.619Z,0.00
2023-05-03T00:03:48.178Z,0.00
2023-05-03T00:04:48.207Z,0.00
2023-05-03T00:05:48.279Z,0.00
2023-05-03T00:06:48.220Z,0.00
2023-05-03T00:07:47.462Z,0.00
2023-05-03T00:08:47.432Z,0.00
2023-05-03T00:09:48.111Z,0.00
2023-05-03T00:10:47.406Z,0.00
2023-05-03T00:11:48.074Z,0.00
2023-05-03T00:12:47.400Z,0.00
2023-05-03T00:13:48.078Z,0.00
2023-05-03T00:14:48.058Z,0.00
2023-05-03T00:15:48.050Z,0.00
2023-05-03T00:16:48.055Z,0.00
2023-05-03T00:17:48.070Z,0.00
2023-05-03T00:18:48.445Z,0.00
2023-05-03T00:19:48.005Z,0.00
2023-05-03T00:20:47.994Z,0.00
2023-05-03T00:21:47.966Z,0.00
2023-05-03T00:22:47.315Z,0.00
2023-05-03T00:23:47.963Z,0.00
2023-05-03T00:24:47.267Z,0.00
2023-05-03T00:25:47.260Z,0.00
2023-05-03T00:26:47.910Z,0.00
2023-05-03T00:27:47.914Z,0.00
2023-05-03T00:28:47.908Z,0.00
2023-05-03T00:29:47.898Z,0.00
2023-05-03T00:30:47.230Z,0.00
2023-05-03T00:31:47.224Z,0.00
2023-05-03T00:32:47.937Z,0.00
2023-05-03T00:33:47.863Z,0.00
2023-05-03T00:34:47.850Z,0.00
2023-05-03T00:35:47.836Z,0.00
2023-05-03T00:36:47.805Z,0.00
2023-05-03T00:37:47.143Z,0.00
2023-05-03T00:38:47.800Z,0.00
2023-05-03T00:39:47.790Z,0.00
2023-05-03T00:40:47.779Z,0.00
2023-05-03T00:41:47.111Z,0.00
2023-05-03T00:42:47.115Z,0.00
2023-05-03T00:43:47.753Z,0.00
2023-05-03T00:44:47.743Z,0.00
2023-05-03T00:45:47.731Z,0.00
2023-05-03T00:46:47.728Z,0.00
2023-05-03T00:47:47.742Z,0.00
2023-05-03T00:48:47.022Z,0.00
2023-05-03T00:49:47.000Z,0.00
2023-05-03T00:50:46.982Z,0.00
2023-05-03T00:51:47.647Z,0.00
2023-05-03T00:52:47.651Z,0.00
2023-05-03T00:53:47.894Z,0.00
2023-05-03T00:54:46.934Z,0.00
2023-05-03T00:55:47.627Z,0.00
2023-05-03T00:56:51.534Z,0.00
2023-05-03T00:57:47.902Z,0.00
2023-05-03T00:58:46.938Z,0.00
2023-05-03T00:59:46.913Z,0.00
2023-05-03T01:00:46.898Z,0.00
2023-05-03T01:01:46.934Z,0.00
2023-05-03T01:02:47.632Z,0.00
2023-05-03T01:03:47.719Z,0.00
2023-05-03T01:04:46.857Z,0.00
2023-05-03T01:05:46.842Z,0.00
2023-05-03T01:06:46.919Z,0.00
2023-05-03T01:07:46.812Z,0.00
2023-05-03T01:08:47.486Z,0.00
2023-05-03T01:09:46.800Z,0.00
2023-05-03T01:10:46.784Z,0.00
2023-05-03T01:11:48.252Z,0.00
2023-05-03T01:12:46.734Z,0.00
2023-05-03T01:13:47.435Z,0.00
2023-05-03T01:14:47.427Z,0.00
2023-05-03T01:15:47.423Z,0.00
2023-05-03T01:16:47.377Z,0.00
2023-05-03T01:17:46.763Z,0.00
2023-05-03T01:18:47.397Z,0.00
2023-05-03T01:19:47.386Z,0.00
2023-05-03T01:20:47.373Z,0.00
2023-05-03T01:21:47.351Z,0.00
2023-05-03T01:22:46.650Z,0.00
2023-05-03T01:23:46.644Z,0.00
2023-05-03T01:24:46.644Z,0.00
2023-05-03T01:25:46.642Z,0.00
2023-05-03T01:26:47.294Z,0.00
2023-05-03T01:27:47.296Z,0.00
2023-05-03T01:28:47.299Z,0.00
2023-05-03T01:29:46.599Z,0.00
2023-05-03T01:30:47.254Z,0.00
2023-05-03T01:31:47.288Z,0.00
2023-05-03T01:32:47.279Z,0.00
2023-05-03T01:33:47.242Z,0.00
2023-05-03T01:34:47.210Z,0.00
2023-05-03T01:35:47.202Z,0.00
2023-05-03T01:36:47.175Z,0.00
2023-05-03T01:37:47.173Z,0.00
2023-05-03T01:38:47.163Z,0.00
2023-05-03T01:39:47.153Z,0.00
2023-05-03T01:40:46.449Z,0.00
2023-05-03T01:41:47.122Z,0.00
2023-05-03T01:42:46.437Z,0.00
2023-05-03T01:43:47.381Z,0.00
2023-05-03T01:44:47.100Z,0.00
2023-05-03T01:45:46.451Z,0.00
2023-05-03T01:46:47.071Z,0.00
2023-05-03T01:47:47.364Z,0.00
2023-05-03T01:48:47.067Z,0.00
2023-05-03T01:49:47.056Z,0.00
2023-05-03T01:50:47.160Z,0.00
2023-05-03T01:51:47.012Z,0.00
2023-05-03T01:52:47.022Z,0.00
2023-05-03T01:53:47.010Z,0.00
2023-05-03T01:54:47.277Z,0.00
2023-05-03T01:55:46.283Z,0.00
2023-05-03T01:56:47.224Z,0.00
2023-05-03T01:57:46.259Z,0.00
2023-05-03T01:58:46.269Z,0.00
2023-05-03T01:59:47.206Z,0.00
2023-05-03T02:00:47.220Z,0.00
2023-05-03T02:01:48.187Z,0.00
2023-05-03T02:02:46.253Z,0.00
2023-05-03T02:03:46.228Z,0.00
2023-05-03T02:04:46.258Z,0.00
2023-05-03T02:05:46.878Z,0.00
2023-05-03T02:06:47.002Z,0.00
2023-05-03T02:07:46.854Z,0.00
2023-05-03T02:08:46.850Z,0.00
2023-05-03T02:09:46.840Z,0.00
2023-05-03T02:10:46.823Z,0.00
2023-05-03T02:11:46.806Z,0.00
2023-05-03T02:12:47.066Z,0.00
2023-05-03T02:13:46.807Z,0.00
2023-05-03T02:14:47.041Z,0.00
2023-05-03T02:15:46.774Z,0.00
2023-05-03T02:16:47.074Z,0.00
2023-05-03T02:17:46.797Z,0.00
2023-05-03T02:18:47.003Z,0.00
2023-05-03T02:19:46.991Z,0.00
2023-05-03T02:20:46.993Z,0.00
2023-05-03T02:21:46.998Z,0.00
2023-05-03T02:22:46.958Z,0.00
2023-05-03T02:23:46.953Z,0.00
2023-05-03T02:24:46.942Z,0.00
2023-05-03T02:25:46.946Z,0.00
2023-05-03T02:26:46.924Z,0.00
2023-05-03T02:27:46.643Z,0.00
2023-05-03T02:28:46.640Z,0.00
2023-05-03T02:29:46.628Z,0.00
2023-05-03T02:30:46.937Z,0.00
2023-05-03T02:31:46.863Z,0.00
2023-05-03T02:32:46.953Z,0.00
2023-05-03T02:33:46.590Z,0.00
2023-05-03T02:34:46.571Z,0.00
2023-05-03T02:35:46.546Z,0.00
2023-05-03T02:36:46.812Z,0.00
2023-05-03T02:37:46.791Z,0.00
2023-05-03T02:38:46.799Z,0.00
2023-05-03T02:39:46.513Z,0.00
2023-05-03T02:40:46.496Z,0.00
2023-05-03T02:41:46.498Z,0.00
2023-05-03T02:42:46.776Z,0.00
2023-05-03T02:43:46.716Z,0.00
2023-05-03T02:44:46.510Z,0.00
2023-05-03T02:45:46.440Z,0.00
2023-05-03T02:46:46.531Z,0.00
2023-05-03T02:47:46.729Z,0.00
2023-05-03T02:48:46.693Z,0.00
2023-05-03T02:49:46.408Z,0.00
2023-05-03T02:50:46.672Z,0.00
2023-05-03T02:51:46.674Z,0.00
2023-05-03T02:52:46.642Z,0.00
2023-05-03T02:53:46.649Z,0.00
2023-05-03T02:54:46.631Z,0.00
2023-05-03T02:55:46.617Z,0.00
2023-05-03T02:56:46.615Z,0.00
2023-05-03T02:57:46.587Z,0.00
2023-05-03T02:58:46.583Z,0.00
2023-05-03T02:59:46.562Z,0.00
2023-05-03T03:00:46.566Z,0.00
2023-05-03T03:01:46.635Z,0.00
2023-05-03T03:02:46.652Z,0.00
2023-05-03T03:03:46.585Z,0.00
2023-05-03T03:04:46.511Z,0.00
2023-05-03T03:05:46.528Z,0.00
2023-05-03T03:06:46.615Z,0.00
2023-05-03T03:07:46.497Z,0.00
2023-05-03T03:08:46.477Z,0.00
2023-05-03T03:09:46.200Z,0.00
2023-05-03T03:10:46.464Z,0.00
2023-05-03T03:11:46.162Z,0.00
2023-05-03T03:12:46.434Z,0.00
2023-05-03T03:13:46.412Z,0.00
2023-05-03T03:14:46.149Z,0.00
2023-05-03T03:15:46.467Z,4.00
2023-05-03T03:16:45.458Z,0.00
2023-05-03T03:17:46.185Z,0.00
2023-05-03T03:18:46.106Z,0.00
2023-05-03T03:19:46.104Z,4.00
2023-05-03T03:20:46.087Z,0.00
2023-05-03T03:21:46.055Z,4.00
2023-05-03T03:22:46.326Z,0.00
2023-05-03T03:23:46.315Z,4.00
2023-05-03T03:24:46.299Z,4.00
2023-05-03T03:25:46.298Z,4.00
2023-05-03T03:26:46.288Z,4.00
2023-05-03T03:27:46.013Z,4.00
2023-05-03T03:28:46.011Z,8.00
2023-05-03T03:29:46.248Z,8.00
2023-05-03T03:30:46.244Z,8.00
2023-05-03T03:31:45.985Z,12.00
2023-05-03T03:32:45.302Z,12.00
2023-05-03T03:33:45.945Z,12.00
2023-05-03T03:34:45.940Z,16.00
2023-05-03T03:35:45.925Z,20.00
2023-05-03T03:36:45.894Z,20.00
2023-05-03T03:37:45.909Z,24.00
2023-05-03T03:38:46.157Z,28.00
2023-05-03T03:39:45.883Z,32.00
2023-05-03T03:40:45.877Z,36.00
2023-05-03T03:41:46.133Z,44.00
2023-05-03T03:42:46.098Z,48.00
2023-05-03T03:43:45.843Z,52.00
2023-05-03T03:44:45.827Z,60.00
2023-05-03T03:45:46.076Z,72.00
2023-05-03T03:46:45.810Z,80.00
2023-05-03T03:47:46.147Z,92.00
2023-05-03T03:48:45.783Z,100.00
2023-05-03T03:49:45.087Z,112.00
2023-05-03T03:50:46.014Z,120.00
2023-05-03T03:51:46.025Z,140.00
2023-05-03T03:52:45.761Z,148.00
2023-05-03T03:53:45.995Z,164.00
2023-05-03T03:54:45.994Z,184.00
2023-05-03T03:55:45.714Z,200.00
2023-05-03T03:56:45.994Z,220.00
2023-05-03T03:57:45.956Z,240.00
2023-05-03T03:58:45.944Z,264.00
2023-05-03T03:59:45.935Z,284.00
2023-05-03T04:00:45.935Z,308.00
2023-05-03T04:01:45.965Z,332.00
2023-05-03T04:02:47.307Z,356.00
2023-05-03T04:03:46.022Z,388.00
2023-05-03T04:04:45.618Z,416.00
2023-05-03T04:05:45.874Z,452.00
2023-05-03T04:06:45.944Z,484.00
2023-05-03T04:07:45.835Z,520.00
2023-05-03T04:08:45.821Z,556.00
2023-05-03T04:09:45.815Z,592.00
2023-05-03T04:10:45.798Z,632.00
2023-05-03T04:11:45.816Z,668.00
2023-05-03T04:12:45.546Z,708.00
2023-05-03T04:13:45.519Z,752.00
2023-05-03T04:14:45.505Z,796.00
2023-05-03T04:15:45.497Z,840.00
2023-05-03T04:16:45.483Z,884.00
2023-05-03T04:17:45.535Z,924.00
2023-05-03T04:18:44.786Z,964.00
2023-05-03T04:19:44.778Z,1012.00
2023-05-03T04:20:44.760Z,1064.00
2023-05-03T04:21:45.411Z,1116.00
2023-05-03T04:22:45.423Z,1176.00
2023-05-03T04:23:45.417Z,1240.00
2023-05-03T04:24:44.721Z,1320.00
2023-05-03T04:25:44.710Z,1412.00
2023-05-03T04:26:44.725Z,1508.00
2023-05-03T04:27:44.691Z,1600.00
2023-05-03T04:28:44.690Z,1700.00
2023-05-03T04:29:45.360Z,1812.00
2023-05-03T04:30:44.761Z,1912.00
2023-05-03T04:31:44.666Z,2012.00
2023-05-03T04:32:44.759Z,2120.00
2023-05-03T04:33:45.305Z,2260.00
2023-05-03T04:34:45.170Z,2484.00
2023-05-03T04:35:45.284Z,2704.00
2023-05-03T04:36:45.254Z,2880.00
2023-05-03T04:37:44.585Z,2980.00
2023-05-03T04:38:45.258Z,3076.00
2023-05-03T04:39:45.247Z,3144.00
2023-05-03T04:40:44.603Z,3196.00
2023-05-03T04:41:45.210Z,3260.00
2023-05-03T04:42:45.214Z,3320.00
2023-05-03T04:43:45.203Z,3364.00
2023-05-03T04:44:44.502Z,3472.00
2023-05-03T04:45:45.942Z,3668.00
2023-05-03T04:46:44.576Z,3916.00
2023-05-03T04:47:45.208Z,4056.00
2023-05-03T04:48:45.151Z,4188.00
2023-05-03T04:49:45.137Z,4676.00
2023-05-03T04:50:45.122Z,4740.00
2023-05-03T04:51:45.101Z,4836.00
2023-05-03T04:52:45.108Z,5076.00
2023-05-03T04:53:45.852Z,5364.00
2023-05-03T04:54:45.080Z,5664.00
2023-05-03T04:55:45.075Z,5996.00
2023-05-03T04:56:45.045Z,6328.00
2023-05-03T04:57:45.050Z,6716.00
2023-05-03T04:58:46.296Z,7436.00
2023-05-03T04:59:44.332Z,8324.00
2023-05-03T05:00:44.337Z,9072.00
2023-05-03T05:01:44.420Z,9860.00
2023-05-03T05:02:45.119Z,11280.00
2023-05-03T05:03:44.438Z,14144.00
2023-05-03T05:04:45.002Z,16128.00
2023-05-03T05:05:44.293Z,16480.00
2023-05-03T05:06:44.331Z,15616.00
2023-05-03T05:07:44.250Z,16064.00
2023-05-03T05:08:44.930Z,16032.00
2023-05-03T05:09:44.919Z,15584.00
2023-05-03T05:10:44.909Z,14560.00
2023-05-03T05:11:44.229Z,13568.00
2023-05-03T05:12:44.891Z,13888.00
2023-05-03T05:13:44.221Z,14080.00
2023-05-03T05:14:44.868Z,14144.00
2023-05-03T05:15:44.848Z,13248.00
2023-05-03T05:16:44.196Z,12672.00
2023-05-03T05:17:44.344Z,13408.00
2023-05-03T05:18:44.128Z,14784.00
2023-05-03T05:19:44.820Z,14784.00
2023-05-03T05:20:44.798Z,13248.00
2023-05-03T05:21:44.789Z,12608.00
2023-05-03T05:22:44.091Z,13728.00
2023-05-03T05:23:44.110Z,13536.00
2023-05-03T05:24:44.756Z,9916.00
2023-05-03T05:25:44.728Z,12800.00
2023-05-03T05:26:44.741Z,11192.00
2023-05-03T05:27:44.728Z,11360.00
2023-05-03T05:28:44.029Z,12044.00
2023-05-03T05:29:44.012Z,12596.00
2023-05-03T05:30:44.671Z,12596.00
2023-05-03T05:31:44.746Z,12136.00
2023-05-03T05:32:44.065Z,11828.00
2023-05-03T05:33:43.963Z,11848.00
2023-05-03T05:34:45.317Z,12288.00
2023-05-03T05:35:43.955Z,13012.00
2023-05-03T05:36:44.631Z,13284.00
2023-05-03T05:37:44.618Z,12872.00
2023-05-03T05:38:44.608Z,12728.00
2023-05-03T05:39:44.593Z,12788.00
2023-05-03T05:40:44.570Z,13476.00
2023-05-03T05:41:44.577Z,13216.00
2023-05-03T05:42:44.566Z,13104.00
2023-05-03T05:43:44.549Z,13336.00
2023-05-03T05:44:44.545Z,13448.00
2023-05-03T05:45:44.510Z,12356.00
2023-05-03T05:46:44.585Z,11808.00
2023-05-03T05:47:44.515Z,12956.00
2023-05-03T05:48:44.490Z,13652.00
2023-05-03T05:49:44.484Z,14272.00
2023-05-03T05:50:44.459Z,13516.00
2023-05-03T05:51:43.775Z,13388.00
2023-05-03T05:52:43.768Z,13696.00
2023-05-03T05:53:44.441Z,14432.00
2023-05-03T05:54:45.672Z,14528.00
2023-05-03T05:55:44.420Z,13772.00
2023-05-03T05:56:44.413Z,14240.00
2023-05-03T05:57:44.404Z,14528.00
2023-05-03T05:58:44.392Z,14560.00
2023-05-03T05:59:44.384Z,14880.00
2023-05-03T06:00:44.352Z,15840.00
2023-05-03T06:01:44.384Z,16896.00
2023-05-03T06:02:44.442Z,17088.00
2023-05-03T06:03:43.650Z,16384.00
2023-05-03T06:04:44.336Z,15744.00
2023-05-03T06:05:44.424Z,15872.00
2023-05-03T06:06:44.350Z,15552.00
2023-05-03T06:07:43.613Z,16512.00
2023-05-03T06:08:44.286Z,17792.00
2023-05-03T06:09:43.586Z,19616.00
2023-05-03T06:10:43.599Z,20320.00
2023-05-03T06:11:43.568Z,19008.00
2023-05-03T06:12:44.246Z,18400.00
2023-05-03T06:13:44.245Z,19136.00
2023-05-03T06:14:55.298Z,18880.00
2023-05-03T06:15:44.536Z,20768.00
2023-05-03T06:16:44.217Z,24768.00
2023-05-03T06:17:44.223Z,26688.00
2023-05-03T06:18:44.185Z,26048.00
2023-05-03T06:19:45.147Z,23968.00
2023-05-03T06:20:44.140Z,22304.00
2023-05-03T06:21:43.459Z,24000.00
2023-05-03T06:22:45.414Z,30432.00
2023-05-03T06:23:44.131Z,33856.00
2023-05-03T06:24:44.120Z,33376.00
2023-05-03T06:25:44.083Z,29088.00
2023-05-03T06:26:44.106Z,23488.00
2023-05-03T06:27:43.386Z,17824.00
2023-05-03T06:28:44.084Z,16256.00
2023-05-03T06:29:43.385Z,15488.00
2023-05-03T06:30:44.081Z,14848.00
2023-05-03T06:31:43.480Z,14016.00
2023-05-03T06:32:44.084Z,13236.00
2023-05-03T06:33:43.331Z,12868.00
2023-05-03T06:34:43.326Z,12660.00
2023-05-03T06:35:43.986Z,12496.00
2023-05-03T06:36:44.000Z,12516.00
2023-05-03T06:37:43.286Z,12464.00
2023-05-03T06:38:43.274Z,12476.00
2023-05-03T06:39:43.969Z,12432.00
2023-05-03T06:40:43.926Z,12456.00
2023-05-03T06:41:43.929Z,12560.00
2023-05-03T06:42:43.929Z,12700.00
2023-05-03T06:43:43.237Z,13008.00
2023-05-03T06:44:43.289Z,13824.00
2023-05-03T06:45:43.213Z,17696.00
2023-05-03T06:46:43.349Z,20544.00
2023-05-03T06:47:43.866Z,21152.00
2023-05-03T06:48:45.140Z,20800.00
2023-05-03T06:49:43.844Z,20544.00
2023-05-03T06:50:43.162Z,21920.00
2023-05-03T06:51:43.141Z,24544.00
2023-05-03T06:52:44.053Z,26272.00
2023-05-03T06:53:43.800Z,27456.00
2023-05-03T06:54:43.791Z,28160.00
2023-05-03T06:55:45.066Z,29024.00
2023-05-03T06:56:43.769Z,30464.00
2023-05-03T06:57:43.758Z,31168.00
2023-05-03T06:58:43.749Z,30880.00
2023-05-03T06:59:43.741Z,32000.00
2023-05-03T07:00:43.717Z,33216.00
2023-05-03T07:01:45.224Z,32736.00
2023-05-03T07:02:45.071Z,33504.00
2023-05-03T07:03:44.101Z,33312.00
2023-05-03T07:04:43.022Z,32800.00
2023-05-03T07:05:43.671Z,32576.00
2023-05-03T07:06:55.460Z,32832.00
2023-05-03T07:07:44.646Z,28992.00
2023-05-03T07:08:43.642Z,31424.00
2023-05-03T07:09:44.897Z,31776.00
2023-05-03T07:10:43.614Z,35584.00
2023-05-03T07:11:43.606Z,35392.00
2023-05-03T07:12:43.594Z,33920.00
2023-05-03T07:13:42.909Z,30880.00
2023-05-03T07:14:42.904Z,31008.00
2023-05-03T07:15:43.814Z,32416.00
2023-05-03T07:16:43.862Z,31392.00
2023-05-03T07:17:43.586Z,31776.00
2023-05-03T07:18:43.773Z,31072.00
2023-05-03T07:19:43.510Z,33088.00
2023-05-03T07:20:43.742Z,34752.00
2023-05-03T07:21:43.738Z,35104.00
2023-05-03T07:22:43.487Z,31584.00
2023-05-03T07:23:43.476Z,7844.00
2023-05-03T07:24:43.497Z,7544.00
2023-05-03T07:25:42.776Z,36608.00
2023-05-03T07:26:44.509Z,35488.00
2023-05-03T07:27:43.671Z,28032.00
2023-05-03T07:28:42.713Z,32992.00
2023-05-03T07:29:42.749Z,28480.00
2023-05-03T07:30:43.392Z,27040.00
2023-05-03T07:31:42.704Z,36000.00
2023-05-03T07:32:43.446Z,38880.00
2023-05-03T07:33:43.519Z,36992.00
2023-05-03T07:34:43.333Z,37248.00
2023-05-03T07:35:42.645Z,38528.00
2023-05-03T07:36:43.332Z,37696.00
2023-05-03T07:37:43.338Z,39200.00
2023-05-03T07:38:43.311Z,41504.00
2023-05-03T07:39:43.576Z,42144.00
2023-05-03T07:40:43.536Z,41600.00
2023-05-03T07:41:43.274Z,38176.00
2023-05-03T07:42:43.272Z,38528.00
2023-05-03T07:43:43.502Z,38112.00
2023-05-03T07:44:43.232Z,37952.00
2023-05-03T07:45:43.540Z,37728.00
2023-05-03T07:46:43.422Z,36672.00
2023-05-03T07:47:42.546Z,41088.00
2023-05-03T07:48:44.451Z,41984.00
2023-05-03T07:49:43.176Z,18976.00
2023-05-03T07:50:43.409Z,43776.00
2023-05-03T07:51:42.481Z,8188.00
2023-05-03T07:52:43.457Z,8312.00
2023-05-03T07:53:43.390Z,45280.00
2023-05-03T07:54:43.389Z,41056.00
2023-05-03T07:55:43.125Z,41280.00
2023-05-03T07:56:43.366Z,41728.00
2023-05-03T07:57:43.378Z,42048.00
2023-05-03T07:58:45.026Z,40416.00
2023-05-03T07:59:43.074Z,41664.00
2023-05-03T08:00:43.093Z,41824.00
2023-05-03T08:01:43.070Z,44768.00
2023-05-03T08:02:43.165Z,35904.00
2023-05-03T08:03:43.632Z,41152.00
2023-05-03T08:04:43.579Z,39136.00
2023-05-03T08:05:43.085Z,37568.00
2023-05-03T08:06:43.076Z,46720.00
2023-05-03T08:07:42.998Z,48768.00
2023-05-03T08:08:44.245Z,49248.00
2023-05-03T08:09:43.229Z,49536.00
2023-05-03T08:10:42.989Z,44576.00
2023-05-03T08:11:44.308Z,47136.00
2023-05-03T08:12:42.958Z,48160.00
2023-05-03T08:13:42.937Z,49344.00
2023-05-03T08:14:42.907Z,48000.00
2023-05-03T08:15:43.199Z,46368.00
2023-05-03T08:16:42.914Z,45408.00
2023-05-03T08:17:43.377Z,46720.00
2023-05-03T08:18:43.128Z,48640.00
2023-05-03T08:19:42.865Z,48160.00
2023-05-03T08:20:43.117Z,47168.00
2023-05-03T08:21:43.101Z,49120.00
2023-05-03T08:22:43.083Z,48672.00
2023-05-03T08:23:42.832Z,46112.00
2023-05-03T08:24:42.817Z,44960.00
2023-05-03T08:25:42.823Z,46528.00
2023-05-03T08:26:42.804Z,44576.00
2023-05-03T08:27:43.073Z,44576.00
2023-05-03T08:28:42.143Z,44992.00
2023-05-03T08:29:42.101Z,39936.00
2023-05-03T08:30:42.091Z,35872.00
2023-05-03T08:31:43.015Z,38656.00
2023-05-03T08:32:42.996Z,32960.00
2023-05-03T08:33:42.726Z,9484.00
2023-05-03T08:34:42.969Z,10720.00
2023-05-03T08:35:42.704Z,9128.00
2023-05-03T08:36:42.698Z,8700.00
2023-05-03T08:37:42.954Z,8220.00
2023-05-03T08:38:42.924Z,7948.00
2023-05-03T08:39:42.659Z,7672.00
2023-05-03T08:40:42.650Z,8008.00
2023-05-03T08:41:42.645Z,8188.00
2023-05-03T08:42:42.883Z,7820.00
2023-05-03T08:43:43.892Z,8072.00
2023-05-03T08:44:42.592Z,7720.00
2023-05-03T08:45:42.604Z,7752.00
2023-05-03T08:46:42.636Z,7508.00
2023-05-03T08:47:42.590Z,7276.00
2023-05-03T08:48:42.801Z,7160.00
2023-05-03T08:49:42.536Z,6992.00
2023-05-03T08:50:42.796Z,6848.00
2023-05-03T08:51:42.767Z,6420.00
2023-05-03T08:52:41.821Z,6100.00
2023-05-03T08:53:42.506Z,6168.00
2023-05-03T08:54:42.478Z,6000.00
2023-05-03T08:55:42.487Z,5948.00
2023-05-03T08:56:42.478Z,5876.00
2023-05-03T08:57:41.780Z,5760.00
2023-05-03T08:58:41.774Z,5664.00
2023-05-03T08:59:42.424Z,5608.00
2023-05-03T09:00:42.692Z,5412.00
2023-05-03T09:01:42.752Z,5440.00
2023-05-03T09:02:42.929Z,5404.00
2023-05-03T09:03:41.801Z,5316.00
2023-05-03T09:04:42.377Z,5248.00
2023-05-03T09:05:42.642Z,5208.00
2023-05-03T09:06:42.706Z,5192.00
2023-05-03T09:07:42.607Z,5168.00
2023-05-03T09:08:42.339Z,5156.00
2023-05-03T09:09:43.424Z,5188.00
2023-05-03T09:10:42.328Z,5200.00
2023-05-03T09:11:42.563Z,5268.00
2023-05-03T09:12:41.608Z,5156.00
2023-05-03T09:13:42.560Z,5096.00
2023-05-03T09:14:42.267Z,5072.00
2023-05-03T09:15:42.277Z,5092.00
2023-05-03T09:16:42.321Z,5176.00
2023-05-03T09:17:41.634Z,5260.00
2023-05-03T09:18:41.541Z,5368.00
2023-05-03T09:19:42.498Z,5164.00
2023-05-03T09:20:42.484Z,5188.00
2023-05-03T09:21:42.209Z,5268.00
2023-05-03T09:22:42.197Z,5284.00
2023-05-03T09:23:42.468Z,5504.00
2023-05-03T09:24:42.461Z,5132.00
2023-05-03T09:25:42.428Z,3952.00
2023-05-03T09:26:42.411Z,4896.00
2023-05-03T09:27:42.154Z,4920.00
2023-05-03T09:28:42.128Z,4832.00
2023-05-03T09:29:42.103Z,4796.00
2023-05-03T09:30:42.369Z,4764.00
2023-05-03T09:31:42.397Z,4736.00
2023-05-03T09:32:42.385Z,4740.00
2023-05-03T09:33:42.320Z,4748.00
2023-05-03T09:34:42.330Z,4744.00
2023-05-03T09:35:41.346Z,4488.00
2023-05-03T09:36:42.908Z,4636.00
2023-05-03T09:37:42.033Z,4728.00
2023-05-03T09:38:42.023Z,4760.00
2023-05-03T09:39:41.336Z,4768.00
2023-05-03T09:40:41.992Z,4500.00
2023-05-03T09:41:41.980Z,4664.00
2023-05-03T09:42:42.258Z,4780.00
2023-05-03T09:43:41.964Z,4832.00
2023-05-03T09:44:41.945Z,4688.00
2023-05-03T09:45:41.294Z,4660.00
2023-05-03T09:46:41.247Z,4792.00
2023-05-03T09:47:41.953Z,4824.00
2023-05-03T09:48:41.908Z,4736.00
2023-05-03T09:49:41.879Z,4724.00
2023-05-03T09:50:41.903Z,4688.00
2023-05-03T09:51:41.876Z,4652.00
2023-05-03T09:52:41.866Z,4640.00
2023-05-03T09:53:41.878Z,4616.00
2023-05-03T09:54:41.830Z,4688.00
2023-05-03T09:55:41.845Z,4696.00
2023-05-03T09:56:41.143Z,4656.00
2023-05-03T09:57:41.140Z,4620.00
2023-05-03T09:58:41.127Z,4608.00
2023-05-03T09:59:41.780Z,4628.00
2023-05-03T10:00:41.791Z,4612.00
2023-05-03T10:01:41.155Z,4584.00
2023-05-03T10:02:41.107Z,4588.00
2023-05-03T10:03:41.777Z,4604.00
2023-05-03T10:04:41.727Z,4640.00
2023-05-03T10:05:41.730Z,4652.00
2023-05-03T10:06:41.078Z,4640.00
2023-05-03T10:07:41.028Z,4648.00
2023-05-03T10:08:41.029Z,4656.00
2023-05-03T10:09:41.020Z,4664.00
2023-05-03T10:10:41.681Z,4676.00
2023-05-03T10:11:40.987Z,4712.00
2023-05-03T10:12:41.653Z,4740.00
2023-05-03T10:13:40.963Z,4752.00
2023-05-03T10:14:40.965Z,4792.00
2023-05-03T10:15:40.954Z,4820.00
2023-05-03T10:16:40.928Z,4876.00
2023-05-03T10:17:46.936Z,4916.00
2023-05-03T10:18:42.586Z,4948.00
2023-05-03T10:19:41.561Z,4964.00
2023-05-03T10:20:41.572Z,5036.00
2023-05-03T10:21:41.556Z,5080.00
2023-05-03T10:22:41.546Z,5160.00
2023-05-03T10:23:41.517Z,5256.00
2023-05-03T10:24:40.846Z,5368.00
2023-05-03T10:25:40.853Z,5472.00
2023-05-03T10:26:41.502Z,5588.00
2023-05-03T10:27:41.494Z,5704.00
2023-05-03T10:28:41.469Z,5928.00
2023-05-03T10:29:41.476Z,6296.00
2023-05-03T10:30:40.798Z,7096.00
2023-05-03T10:31:40.808Z,8700.00
2023-05-03T10:32:41.470Z,9788.00
2023-05-03T10:33:41.423Z,10072.00
2023-05-03T10:34:41.413Z,10140.00
2023-05-03T10:35:41.426Z,9828.00
2023-05-03T10:36:49.527Z,9412.00
2023-05-03T10:37:43.132Z,8356.00
2023-05-03T10:38:41.377Z,5844.00
2023-05-03T10:39:41.364Z,3624.00
2023-05-03T10:40:40.659Z,3372.00
2023-05-03T10:41:41.350Z,3360.00
2023-05-03T10:42:40.643Z,3376.00
2023-05-03T10:43:40.652Z,3428.00
2023-05-03T10:44:41.326Z,3480.00
2023-05-03T10:45:41.289Z,3404.00
2023-05-03T10:46:41.401Z,3308.00
2023-05-03T10:47:41.308Z,3220.00
2023-05-03T10:48:41.253Z,3204.00
2023-05-03T10:49:41.259Z,3208.00
2023-05-03T10:50:41.268Z,3212.00
2023-05-03T10:51:41.233Z,3200.00
2023-05-03T10:52:41.221Z,3208.00
2023-05-03T10:53:40.550Z,3176.00
2023-05-03T10:54:40.517Z,3192.00
2023-05-03T10:55:40.509Z,3200.00
2023-05-03T10:56:40.502Z,3192.00
2023-05-03T10:57:41.166Z,3156.00
2023-05-03T10:58:41.140Z,3092.00
2023-05-03T10:59:41.150Z,3040.00
2023-05-03T11:00:40.473Z,3000.00
2023-05-03T11:01:41.155Z,2956.00
2023-05-03T11:02:41.146Z,2952.00
2023-05-03T11:03:40.412Z,2952.00
2023-05-03T11:04:41.187Z,2944.00
2023-05-03T11:05:41.102Z,2940.00
2023-05-03T11:06:40.418Z,2936.00
2023-05-03T11:07:41.084Z,2964.00
2023-05-03T11:08:41.025Z,2980.00
2023-05-03T11:09:41.052Z,2968.00
2023-05-03T11:10:41.036Z,2952.00
2023-05-03T11:11:41.104Z,2916.00
2023-05-03T11:12:40.312Z,2920.00
2023-05-03T11:13:41.133Z,2928.00
2023-05-03T11:14:40.986Z,2924.00
2023-05-03T11:15:40.976Z,2944.00
2023-05-03T11:16:41.030Z,2960.00
2023-05-03T11:17:40.286Z,2988.00
2023-05-03T11:18:40.921Z,3000.00
2023-05-03T11:19:40.947Z,3008.00
2023-05-03T11:20:41.182Z,2992.00
2023-05-03T11:21:41.162Z,2960.00
2023-05-03T11:22:40.897Z,2924.00
2023-05-03T11:23:40.194Z,2928.00
2023-05-03T11:24:40.201Z,2924.00
2023-05-03T11:25:40.859Z,2932.00
2023-05-03T11:26:40.854Z,2928.00
2023-05-03T11:27:41.108Z,2932.00
2023-05-03T11:28:40.814Z,2920.00
2023-05-03T11:29:40.824Z,2928.00
2023-05-03T11:30:40.807Z,2928.00
2023-05-03T11:31:40.827Z,2864.00
2023-05-03T11:32:40.824Z,2832.00
2023-05-03T11:33:40.759Z,2808.00
2023-05-03T11:34:40.094Z,2784.00
2023-05-03T11:35:40.073Z,2796.00
2023-05-03T11:36:40.756Z,2800.00
2023-05-03T11:37:40.740Z,2824.00
2023-05-03T11:38:40.708Z,2848.00
2023-05-03T11:39:40.719Z,2868.00
2023-05-03T11:40:40.702Z,2732.00
2023-05-03T11:41:40.027Z,2688.00
2023-05-03T11:42:40.968Z,2708.00
2023-05-03T11:43:40.666Z,2740.00
2023-05-03T11:44:40.653Z,2744.00
2023-05-03T11:45:40.691Z,2748.00
2023-05-03T11:46:40.694Z,2756.00
2023-05-03T11:47:40.685Z,2764.00
2023-05-03T11:48:39.950Z,2768.00
2023-05-03T11:49:40.627Z,2752.00
2023-05-03T11:50:39.885Z,2744.00
2023-05-03T11:51:40.578Z,2696.00
2023-05-03T11:52:40.595Z,2724.00
2023-05-03T11:53:39.898Z,2720.00
2023-05-03T11:54:40.552Z,2716.00
2023-05-03T11:55:39.858Z,2724.00
2023-05-03T11:56:40.546Z,2724.00
2023-05-03T11:57:40.527Z,2716.00
2023-05-03T11:58:39.839Z,2704.00
2023-05-03T11:59:40.827Z,2684.00
2023-05-03T12:00:39.817Z,2688.00
2023-05-03T12:01:39.821Z,2676.00
2023-05-03T12:02:40.745Z,2668.00
2023-05-03T12:03:40.849Z,2668.00
2023-05-03T12:04:39.951Z,2660.00
2023-05-03T12:05:41.086Z,2672.00
2023-05-03T12:06:40.758Z,2664.00
2023-05-03T12:07:40.897Z,2652.00
2023-05-03T12:08:43.227Z,2636.00
2023-05-03T12:09:41.726Z,2628.00
2023-05-03T12:10:42.743Z,2636.00
2023-05-03T12:11:40.856Z,2636.00
2023-05-03T12:12:42.743Z,2632.00
2023-05-03T12:13:41.697Z,2632.00
2023-05-03T12:14:41.842Z,2640.00
2023-05-03T12:15:40.996Z,2668.00
2023-05-03T12:16:39.722Z,2692.00
2023-05-03T12:17:43.938Z,2696.00
2023-05-03T12:18:41.173Z,2664.00
2023-05-03T12:19:40.527Z,2616.00
2023-05-03T12:21:42.044Z,2652.00